الصفحة الرئيسية
METAR-TAF:

METAR-TAF

مطار :

Weipa, أستراليا

دائرة عرض: 12-40-43S, خط طول: 141-55-31E, ارتفاع: 19 متر

مراقبة الطقس الحالي

تاريخ ووقت الإصدار 50 دقيقة قبل الساعة 20:00UTC
ريح 3 عقدة من الجنوب/الجنوب الشرقي
درجة الحرارة 25°درجة مئوية
الرطوبة 83%
ضغط 1008 hPa
الرؤية 10 كم أو أكثر
غيوم مفككة على ارتفاع 6600 قدم

METAR: YBWP 172000Z AUTO 16003KT 9999 // BKN066 25/22 Q1008

زمن: 06:50 (20:50 UTC)


TAF: مفقودة

أرصاد الطقس والتوقعات من أكثر من 4000 مطار (تقارير الطقس للمطار METAR والتنبؤ بالطقس بالمطارTAF).

المحطات المتاحة هي النقط الصفراء والحمراء على الخريطة.

حرك المؤشر فوق النقطة لمعرفة اسم المحطة.

ثم انقر لمعرفة أرصاد وتوقعات الطقس.

لتغيير الخارطة: اضغط على الأزرار الخضراء مع رمز الصليب الأسود للتكبير. على الزر الأخضر مع شرطة للتصغير، أو على الأسهم الخضراء للخرائط المجاورة.


METAR-TAF: